Terminal Aerodrome Forecast
Issued by NWS

Home | Current Version | Previous Version | Text Only | Print | Product List | Glossary On
Versions: 1 2 3 4 5 6 7 8 9 10 11 12 13 14 15 16 17 18 19 20 21 22 23 24 25 26 27 28 29 30 31 32 33 34
000
FTUS42 KMHX 250834 AAB
TAFISO
TAF AMD
KISO 250834Z 2509/2606 19005KT P6SM BKN015 BKN035
     FM251100 21010G15KT P6SM SCT020 BKN250
     FM251500 22015G25KT P6SM SCT050
     FM251800 23015G25KT P6SM BKN090
     FM252300 24010KT P6SM BKN090
     FM260200 24010KT P6SM SCT050
      AMD LTD TO CLD VIS AND WIND=

USA.gov is the U.S. government's official web portal to all federal, state and local government web resources and services.